sensor_id;sensor_type;location;lat;lon;timestamp;pressure;altitude;pressure_sealevel;temperature;humidity
4133;BME280;2080;51.038;7.008;2023-02-11T00:01:30;78202.94;;;-142.53;100.00
4133;BME280;2080;51.038;7.008;2023-02-11T00:03:57;78185.44;;;-142.53;100.00
4133;BME280;2080;51.038;7.008;2023-02-11T00:06:27;78204.88;;;-142.53;100.00
4133;BME280;2080;51.038;7.008;2023-02-11T00:08:52;78204.88;;;-142.53;100.00
4133;BME280;2080;51.038;7.008;2023-02-11T00:11:20;78204.88;;;-142.53;100.00
4133;BME280;2080;51.038;7.008;2023-02-11T00:13:49;78173.78;;;-142.53;100.00
4133;BME280;2080;51.038;7.008;2023-02-11T00:16:19;78216.53;;;-142.53;100.00
4133;BME280;2080;51.038;7.008;2023-02-11T00:18:45;78197.09;;;-142.53;100.00
4133;BME280;2080;51.038;7.008;2023-02-11T00:21:16;78193.22;;;-142.53;100.00
4133;BME280;2080;51.038;7.008;2023-02-11T00:23:42;78197.09;;;-142.53;100.00
4133;BME280;2080;51.038;7.008;2023-02-11T00:26:20;78208.78;;;-142.53;100.00
4133;BME280;2080;51.038;7.008;2023-02-11T00:28:47;78214.59;;;-142.53;100.00
4133;BME280;2080;51.038;7.008;2023-02-11T00:31:19;78230.16;;;-142.53;100.00
4133;BME280;2080;51.038;7.008;2023-02-11T00:33:47;78228.19;;;-142.53;100.00
4133;BME280;2080;51.038;7.008;2023-02-11T00:36:17;78239.88;;;-142.53;100.00
4133;BME280;2080;51.038;7.008;2023-02-11T00:38:46;78241.81;;;-142.53;100.00
4133;BME280;2080;51.038;7.008;2023-02-11T00:41:15;78235.97;;;-142.53;100.00
4133;BME280;2080;51.038;7.008;2023-02-11T00:43:41;78212.66;;;-142.53;100.00
4133;BME280;2080;51.038;7.008;2023-02-11T00:46:09;78197.09;;;-142.53;100.00
4133;BME280;2080;51.038;7.008;2023-02-11T00:48:35;78158.25;;;-142.53;100.00
4133;BME280;2080;51.038;7.008;2023-02-11T00:51:00;78142.69;;;-142.53;100.00
4133;BME280;2080;51.038;7.008;2023-02-11T00:53:26;78156.31;;;-142.53;100.00
4133;BME280;2080;51.038;7.008;2023-02-11T00:55:51;78181.56;;;-142.53;100.00
4133;BME280;2080;51.038;7.008;2023-02-11T00:58:19;78201.00;;;-142.53;100.00
4133;BME280;2080;51.038;7.008;2023-02-11T01:00:45;78201.00;;;-142.53;100.00
4133;BME280;2080;51.038;7.008;2023-02-11T01:03:10;78195.16;;;-142.53;100.00
4133;BME280;2080;51.038;7.008;2023-02-11T01:05:36;78185.44;;;-142.53;100.00
4133;BME280;2080;51.038;7.008;2023-02-11T01:08:01;78181.56;;;-142.53;100.00
4133;BME280;2080;51.038;7.008;2023-02-11T01:10:29;78173.78;;;-142.53;100.00
4133;BME280;2080;51.038;7.008;2023-02-11T01:12:59;78177.69;;;-142.53;100.00
4133;BME280;2080;51.038;7.008;2023-02-11T01:15:28;78179.63;;;-142.53;100.00
4133;BME280;2080;51.038;7.008;2023-02-11T01:17:53;78162.13;;;-142.53;100.00
4133;BME280;2080;51.038;7.008;2023-02-11T01:20:24;78162.13;;;-142.53;100.00
4133;BME280;2080;51.038;7.008;2023-02-11T01:22:49;78169.91;;;-142.53;100.00
4133;BME280;2080;51.038;7.008;2023-02-11T01:25:15;78185.44;;;-142.53;100.00
4133;BME280;2080;51.038;7.008;2023-02-11T01:27:40;78195.16;;;-142.53;100.00
4133;BME280;2080;51.038;7.008;2023-02-11T01:30:07;78210.72;;;-142.53;100.00
4133;BME280;2080;51.038;7.008;2023-02-11T01:32:38;78197.09;;;-142.53;100.00
4133;BME280;2080;51.038;7.008;2023-02-11T01:35:04;78204.88;;;-142.53;100.00
4133;BME280;2080;51.038;7.008;2023-02-11T01:37:34;78220.44;;;-142.53;100.00
4133;BME280;2080;51.038;7.008;2023-02-11T01:40:06;78234.03;;;-142.53;100.00
4133;BME280;2080;51.038;7.008;2023-02-11T01:42:32;78212.66;;;-142.53;100.00
4133;BME280;2080;51.038;7.008;2023-02-11T01:44:59;78224.31;;;-142.53;100.00
4133;BME280;2080;51.038;7.008;2023-02-11T01:47:25;78220.44;;;-142.53;100.00
4133;BME280;2080;51.038;7.008;2023-02-11T01:49:55;78220.44;;;-142.53;100.00
4133;BME280;2080;51.038;7.008;2023-02-11T01:52:29;78206.81;;;-142.53;100.00
4133;BME280;2080;51.038;7.008;2023-02-11T01:54:59;78189.34;;;-142.53;100.00
4133;BME280;2080;51.038;7.008;2023-02-11T01:57:48;78208.78;;;-142.53;100.00
4133;BME280;2080;51.038;7.008;2023-02-11T02:00:34;78193.22;;;-142.53;100.00
4133;BME280;2080;51.038;7.008;2023-02-11T02:08:38;78208.78;;;-142.53;100.00
4133;BME280;2080;51.038;7.008;2023-02-11T02:11:05;78216.53;;;-142.53;100.00
4133;BME280;2080;51.038;7.008;2023-02-11T02:13:32;78216.53;;;-142.53;100.00
4133;BME280;2080;51.038;7.008;2023-02-11T02:16:01;78208.78;;;-142.53;100.00
4133;BME280;2080;51.038;7.008;2023-02-11T02:23:34;78220.44;;;-142.53;100.00
4133;BME280;2080;51.038;7.008;2023-02-11T02:31:56;78224.31;;;-142.53;100.00
4133;BME280;2080;51.038;7.008;2023-02-11T02:34:30;78218.47;;;-142.53;100.00
4133;BME280;2080;51.038;7.008;2023-02-11T02:37:09;78208.78;;;-142.53;100.00
4133;BME280;2080;51.038;7.008;2023-02-11T02:39:43;78197.09;;;-142.53;100.00
4133;BME280;2080;51.038;7.008;2023-02-11T02:42:10;78202.94;;;-142.53;100.00
4133;BME280;2080;51.038;7.008;2023-02-11T02:44:39;78193.22;;;-142.53;100.00
4133;BME280;2080;51.038;7.008;2023-02-11T02:47:04;78212.66;;;-142.53;100.00
4133;BME280;2080;51.038;7.008;2023-02-11T02:49:29;78212.66;;;-142.53;100.00
4133;BME280;2080;51.038;7.008;2023-02-11T03:07:58;78164.06;;;-142.53;100.00
4133;BME280;2080;51.038;7.008;2023-02-11T03:10:28;78142.69;;;-142.53;100.00
4133;BME280;2080;51.038;7.008;2023-02-11T03:12:56;78142.69;;;-142.53;100.00
4133;BME280;2080;51.038;7.008;2023-02-11T03:15:24;78138.81;;;-142.53;100.00
4133;BME280;2080;51.038;7.008;2023-02-11T03:17:52;78142.69;;;-142.53;100.00
4133;BME280;2080;51.038;7.008;2023-02-11T03:20:19;78146.59;;;-142.53;100.00
4133;BME280;2080;51.038;7.008;2023-02-11T03:22:55;78138.81;;;-142.53;100.00
4133;BME280;2080;51.038;7.008;2023-02-11T03:25:27;78134.94;;;-142.53;100.00
4133;BME280;2080;51.038;7.008;2023-02-11T03:28:04;78131.03;;;-142.53;100.00
4133;BME280;2080;51.038;7.008;2023-02-11T03:30:39;78134.94;;;-142.53;100.00
4133;BME280;2080;51.038;7.008;2023-02-11T03:33:13;78107.72;;;-142.53;100.00
4133;BME280;2080;51.038;7.008;2023-02-11T03:35:49;78107.72;;;-142.53;100.00
4133;BME280;2080;51.038;7.008;2023-02-11T03:38:25;78103.84;;;-142.53;100.00
4133;BME280;2080;51.038;7.008;2023-02-11T03:40:54;78119.38;;;-142.53;100.00
4133;BME280;2080;51.038;7.008;2023-02-11T03:43:26;78107.72;;;-142.53;100.00
4133;BME280;2080;51.038;7.008;2023-02-11T03:45:55;78088.28;;;-142.53;100.00
4133;BME280;2080;51.038;7.008;2023-02-11T03:48:28;78105.78;;;-142.53;100.00
4133;BME280;2080;51.038;7.008;2023-02-11T03:50:59;78084.41;;;-142.53;100.00
4133;BME280;2080;51.038;7.008;2023-02-11T03:53:26;78099.94;;;-142.53;100.00
4133;BME280;2080;51.038;7.008;2023-02-11T03:55:54;78096.06;;;-142.53;100.00
4133;BME280;2080;51.038;7.008;2023-02-11T03:58:21;78123.25;;;-142.53;100.00
4133;BME280;2080;51.038;7.008;2023-02-11T04:00:46;78109.66;;;-142.53;100.00
4133;BME280;2080;51.038;7.008;2023-02-11T04:03:12;78099.94;;;-142.53;100.00
4133;BME280;2080;51.038;7.008;2023-02-11T04:05:38;78111.59;;;-142.53;100.00
4133;BME280;2080;51.038;7.008;2023-02-11T04:08:04;78111.59;;;-142.53;100.00
4133;BME280;2080;51.038;7.008;2023-02-11T04:10:29;78107.72;;;-142.53;100.00
4133;BME280;2080;51.038;7.008;2023-02-11T04:12:55;78084.41;;;-142.53;100.00
4133;BME280;2080;51.038;7.008;2023-02-11T04:15:20;78080.50;;;-142.53;100.00
4133;BME280;2080;51.038;7.008;2023-02-11T04:17:46;78084.41;;;-142.53;100.00
4133;BME280;2080;51.038;7.008;2023-02-11T04:20:11;78076.63;;;-142.53;100.00
4133;BME280;2080;51.038;7.008;2023-02-11T04:22:37;78080.50;;;-142.53;100.00
4133;BME280;2080;51.038;7.008;2023-02-11T04:25:03;78088.28;;;-142.53;100.00
4133;BME280;2080;51.038;7.008;2023-02-11T04:27:29;78092.16;;;-142.53;100.00
4133;BME280;2080;51.038;7.008;2023-02-11T04:29:57;78080.50;;;-142.53;100.00
4133;BME280;2080;51.038;7.008;2023-02-11T04:32:22;78084.41;;;-142.53;100.00
4133;BME280;2080;51.038;7.008;2023-02-11T04:34:49;78064.97;;;-142.53;100.00
4133;BME280;2080;51.038;7.008;2023-02-11T04:37:16;78068.84;;;-142.53;100.00
4133;BME280;2080;51.038;7.008;2023-02-11T04:39:41;78061.06;;;-142.53;100.00
4133;BME280;2080;51.038;7.008;2023-02-11T04:42:09;78072.75;;;-142.53;100.00
4133;BME280;2080;51.038;7.008;2023-02-11T04:44:34;78064.97;;;-142.53;100.00
4133;BME280;2080;51.038;7.008;2023-02-11T04:46:59;78061.06;;;-142.53;100.00
4133;BME280;2080;51.038;7.008;2023-02-11T04:49:25;78076.63;;;-142.53;100.00
4133;BME280;2080;51.038;7.008;2023-02-11T04:51:50;78072.75;;;-142.53;100.00
4133;BME280;2080;51.038;7.008;2023-02-11T04:54:19;78074.69;;;-142.53;100.00
4133;BME280;2080;51.038;7.008;2023-02-11T04:56:49;78084.41;;;-142.53;100.00
4133;BME280;2080;51.038;7.008;2023-02-11T04:59:15;78078.56;;;-142.53;100.00
4133;BME280;2080;51.038;7.008;2023-02-11T05:01:43;78072.75;;;-142.53;100.00
4133;BME280;2080;51.038;7.008;2023-02-11T05:04:14;78072.75;;;-142.53;100.00
4133;BME280;2080;51.038;7.008;2023-02-11T05:06:41;78068.84;;;-142.53;100.00
4133;BME280;2080;51.038;7.008;2023-02-11T05:09:07;78080.50;;;-142.53;100.00
4133;BME280;2080;51.038;7.008;2023-02-11T05:11:37;78076.63;;;-142.53;100.00
4133;BME280;2080;51.038;7.008;2023-02-11T05:14:07;78084.41;;;-142.53;100.00
4133;BME280;2080;51.038;7.008;2023-02-11T05:16:33;78080.50;;;-142.53;100.00
4133;BME280;2080;51.038;7.008;2023-02-11T05:19:00;78057.19;;;-142.53;100.00
4133;BME280;2080;51.038;7.008;2023-02-11T05:21:28;78068.84;;;-142.53;100.00
4133;BME280;2080;51.038;7.008;2023-02-11T05:23:56;78063.03;;;-142.53;100.00
4133;BME280;2080;51.038;7.008;2023-02-11T05:26:25;78068.84;;;-142.53;100.00
4133;BME280;2080;51.038;7.008;2023-02-11T05:28:50;78068.84;;;-142.53;100.00
4133;BME280;2080;51.038;7.008;2023-02-11T05:31:18;78049.41;;;-142.53;100.00
4133;BME280;2080;51.038;7.008;2023-02-11T05:33:45;78053.31;;;-142.53;100.00
4133;BME280;2080;51.038;7.008;2023-02-11T05:36:12;78041.66;;;-142.53;100.00
4133;BME280;2080;51.038;7.008;2023-02-11T05:38:38;78043.59;;;-142.53;100.00
4133;BME280;2080;51.038;7.008;2023-02-11T05:41:04;78049.41;;;-142.53;100.00
4133;BME280;2080;51.038;7.008;2023-02-11T05:43:30;78057.19;;;-142.53;100.00
4133;BME280;2080;51.038;7.008;2023-02-11T05:46:02;78057.19;;;-142.53;100.00
4133;BME280;2080;51.038;7.008;2023-02-11T05:48:33;78053.31;;;-142.53;100.00
4133;BME280;2080;51.038;7.008;2023-02-11T05:50:59;78061.06;;;-142.53;100.00
4133;BME280;2080;51.038;7.008;2023-02-11T05:53:24;78076.63;;;-142.53;100.00
4133;BME280;2080;51.038;7.008;2023-02-11T05:55:52;78080.50;;;-142.53;100.00
4133;BME280;2080;51.038;7.008;2023-02-11T05:58:17;78063.03;;;-142.53;100.00
4133;BME280;2080;51.038;7.008;2023-02-11T06:00:43;78072.75;;;-142.53;100.00
4133;BME280;2080;51.038;7.008;2023-02-11T06:03:08;78078.56;;;-142.53;100.00
4133;BME280;2080;51.038;7.008;2023-02-11T06:05:33;78063.03;;;-142.53;100.00
4133;BME280;2080;51.038;7.008;2023-02-11T06:07:59;78061.06;;;-142.53;100.00
4133;BME280;2080;51.038;7.008;2023-02-11T06:10:26;78064.97;;;-142.53;100.00
4133;BME280;2080;51.038;7.008;2023-02-11T06:12:52;78061.06;;;-142.53;100.00
4133;BME280;2080;51.038;7.008;2023-02-11T06:15:19;78061.06;;;-142.53;100.00
4133;BME280;2080;51.038;7.008;2023-02-11T06:17:45;78070.78;;;-142.53;100.00
4133;BME280;2080;51.038;7.008;2023-02-11T06:20:10;78068.84;;;-142.53;100.00
4133;BME280;2080;51.038;7.008;2023-02-11T06:22:36;78084.41;;;-142.53;100.00
4133;BME280;2080;51.038;7.008;2023-02-11T06:25:02;78053.31;;;-142.53;100.00
4133;BME280;2080;51.038;7.008;2023-02-11T06:27:30;78074.69;;;-142.53;100.00
4133;BME280;2080;51.038;7.008;2023-02-11T06:29:58;78084.41;;;-142.53;100.00
4133;BME280;2080;51.038;7.008;2023-02-11T06:32:26;78045.53;;;-142.53;100.00
4133;BME280;2080;51.038;7.008;2023-02-11T06:34:51;78049.41;;;-142.53;100.00
4133;BME280;2080;51.038;7.008;2023-02-11T06:37:16;78051.34;;;-142.53;100.00
4133;BME280;2080;51.038;7.008;2023-02-11T06:39:43;78078.56;;;-142.53;100.00
4133;BME280;2080;51.038;7.008;2023-02-11T06:42:09;78057.19;;;-142.53;100.00
4133;BME280;2080;51.038;7.008;2023-02-11T06:44:34;78068.84;;;-142.53;100.00
4133;BME280;2080;51.038;7.008;2023-02-11T06:47:02;78084.41;;;-142.53;100.00
4133;BME280;2080;51.038;7.008;2023-02-11T06:49:27;78099.94;;;-142.53;100.00
4133;BME280;2080;51.038;7.008;2023-02-11T06:51:53;78088.28;;;-142.53;100.00
4133;BME280;2080;51.038;7.008;2023-02-11T06:54:18;78101.88;;;-142.53;100.00
4133;BME280;2080;51.038;7.008;2023-02-11T06:56:46;78103.84;;;-142.53;100.00
4133;BME280;2080;51.038;7.008;2023-02-11T06:59:15;78119.38;;;-142.53;100.00
4133;BME280;2080;51.038;7.008;2023-02-11T07:01:44;78111.59;;;-142.53;100.00
4133;BME280;2080;51.038;7.008;2023-02-11T07:04:10;78099.94;;;-142.53;100.00
4133;BME280;2080;51.038;7.008;2023-02-11T07:06:39;78088.28;;;-142.53;100.00
4133;BME280;2080;51.038;7.008;2023-02-11T07:09:07;78066.91;;;-142.53;100.00
4133;BME280;2080;51.038;7.008;2023-02-11T07:11:33;78094.13;;;-142.53;100.00
4133;BME280;2080;51.038;7.008;2023-02-11T07:14:03;78117.44;;;-142.53;100.00
4133;BME280;2080;51.038;7.008;2023-02-11T07:16:30;78103.84;;;-142.53;100.00
4133;BME280;2080;51.038;7.008;2023-02-11T07:18:56;78103.84;;;-142.53;100.00
4133;BME280;2080;51.038;7.008;2023-02-11T07:21:24;78111.59;;;-142.53;100.00
4133;BME280;2080;51.038;7.008;2023-02-11T07:23:52;78084.41;;;-142.53;100.00
4133;BME280;2080;51.038;7.008;2023-02-11T07:26:21;78103.84;;;-142.53;100.00
4133;BME280;2080;51.038;7.008;2023-02-11T07:28:53;78080.50;;;-142.53;100.00
4133;BME280;2080;51.038;7.008;2023-02-11T07:31:22;78088.28;;;-142.53;100.00
4133;BME280;2080;51.038;7.008;2023-02-11T07:33:47;78084.41;;;-142.53;100.00
4133;BME280;2080;51.038;7.008;2023-02-11T07:36:14;78088.28;;;-142.53;100.00
4133;BME280;2080;51.038;7.008;2023-02-11T07:38:40;78092.16;;;-142.53;100.00
4133;BME280;2080;51.038;7.008;2023-02-11T07:41:10;78080.50;;;-142.53;100.00
4133;BME280;2080;51.038;7.008;2023-02-11T07:43:37;78111.59;;;-142.53;100.00
4133;BME280;2080;51.038;7.008;2023-02-11T07:46:07;78119.38;;;-142.53;100.00
4133;BME280;2080;51.038;7.008;2023-02-11T07:48:37;78107.72;;;-142.53;100.00
4133;BME280;2080;51.038;7.008;2023-02-11T07:51:29;78119.38;;;-142.53;100.00
4133;BME280;2080;51.038;7.008;2023-02-11T07:53:57;78107.72;;;-142.53;100.00
4133;BME280;2080;51.038;7.008;2023-02-11T07:56:22;78099.94;;;-142.53;100.00
4133;BME280;2080;51.038;7.008;2023-02-11T07:58:49;78096.06;;;-142.53;100.00
4133;BME280;2080;51.038;7.008;2023-02-11T08:01:22;78088.28;;;-142.53;100.00
4133;BME280;2080;51.038;7.008;2023-02-11T08:03:49;78111.59;;;-142.53;100.00
4133;BME280;2080;51.038;7.008;2023-02-11T08:06:17;78111.59;;;-142.53;100.00
4133;BME280;2080;51.038;7.008;2023-02-11T08:08:43;78105.78;;;-142.53;100.00
4133;BME280;2080;51.038;7.008;2023-02-11T08:11:14;78111.59;;;-142.53;100.00
4133;BME280;2080;51.038;7.008;2023-02-11T08:13:42;78103.84;;;-142.53;100.00
4133;BME280;2080;51.038;7.008;2023-02-11T08:16:10;78096.06;;;-142.53;100.00
4133;BME280;2080;51.038;7.008;2023-02-11T08:18:46;78092.16;;;-142.53;100.00
4133;BME280;2080;51.038;7.008;2023-02-11T08:21:14;78078.56;;;-142.53;100.00
4133;BME280;2080;51.038;7.008;2023-02-11T08:23:40;78086.34;;;-142.53;100.00
4133;BME280;2080;51.038;7.008;2023-02-11T08:26:10;78064.97;;;-142.53;100.00
4133;BME280;2080;51.038;7.008;2023-02-11T08:28:39;78057.19;;;-142.53;100.00
4133;BME280;2080;51.038;7.008;2023-02-11T08:31:07;78045.53;;;-142.53;100.00
4133;BME280;2080;51.038;7.008;2023-02-11T08:33:35;78061.06;;;-142.53;100.00
4133;BME280;2080;51.038;7.008;2023-02-11T08:36:09;78059.13;;;-142.53;100.00
4133;BME280;2080;51.038;7.008;2023-02-11T08:38:35;78072.75;;;-142.53;100.00
4133;BME280;2080;51.038;7.008;2023-02-11T08:41:03;78053.31;;;-142.53;100.00
4133;BME280;2080;51.038;7.008;2023-02-11T08:43:29;78053.31;;;-142.53;100.00
4133;BME280;2080;51.038;7.008;2023-02-11T08:45:54;78066.91;;;-142.53;100.00
4133;BME280;2080;51.038;7.008;2023-02-11T08:48:20;78061.06;;;-142.53;100.00
4133;BME280;2080;51.038;7.008;2023-02-11T08:50:45;78053.31;;;-142.53;100.00
4133;BME280;2080;51.038;7.008;2023-02-11T08:53:13;78053.31;;;-142.53;100.00
4133;BME280;2080;51.038;7.008;2023-02-11T08:55:38;78039.69;;;-142.53;100.00
4133;BME280;2080;51.038;7.008;2023-02-11T08:58:04;78029.97;;;-142.53;100.00
4133;BME280;2080;51.038;7.008;2023-02-11T09:00:29;78029.97;;;-142.53;100.00
4133;BME280;2080;51.038;7.008;2023-02-11T09:02:57;78045.53;;;-142.53;100.00
4133;BME280;2080;51.038;7.008;2023-02-11T09:05:23;78057.19;;;-142.53;100.00
4133;BME280;2080;51.038;7.008;2023-02-11T09:07:48;78039.69;;;-142.53;100.00
4133;BME280;2080;51.038;7.008;2023-02-11T09:10:16;78041.66;;;-142.53;100.00
4133;BME280;2080;51.038;7.008;2023-02-11T09:12:41;78045.53;;;-142.53;100.00
4133;BME280;2080;51.038;7.008;2023-02-11T09:15:07;78072.75;;;-142.53;100.00
4133;BME280;2080;51.038;7.008;2023-02-11T09:17:32;78068.84;;;-142.53;100.00
4133;BME280;2080;51.038;7.008;2023-02-11T09:19:58;78068.84;;;-142.53;100.00
4133;BME280;2080;51.038;7.008;2023-02-11T09:22:23;78064.97;;;-142.53;100.00
4133;BME280;2080;51.038;7.008;2023-02-11T09:24:51;78066.91;;;-142.53;100.00
4133;BME280;2080;51.038;7.008;2023-02-11T09:27:16;78064.97;;;-142.53;100.00
4133;BME280;2080;51.038;7.008;2023-02-11T09:29:42;78057.19;;;-142.53;100.00
4133;BME280;2080;51.038;7.008;2023-02-11T09:32:07;78064.97;;;-142.53;100.00
4133;BME280;2080;51.038;7.008;2023-02-11T09:34:35;78061.06;;;-142.53;100.00
4133;BME280;2080;51.038;7.008;2023-02-11T09:37:02;78033.88;;;-142.53;100.00
4133;BME280;2080;51.038;7.008;2023-02-11T09:39:28;78045.53;;;-142.53;100.00
4133;BME280;2080;51.038;7.008;2023-02-11T09:44:43;78029.97;;;-142.53;100.00
4133;BME280;2080;51.038;7.008;2023-02-11T09:49:50;78029.97;;;-142.53;100.00
4133;BME280;2080;51.038;7.008;2023-02-11T09:52:31;78026.09;;;-142.53;100.00
4133;BME280;2080;51.038;7.008;2023-02-11T09:55:01;78035.81;;;-142.53;100.00
4133;BME280;2080;51.038;7.008;2023-02-11T09:57:36;78033.88;;;-142.53;100.00
4133;BME280;2080;51.038;7.008;2023-02-11T10:00:39;78029.97;;;-142.53;100.00
4133;BME280;2080;51.038;7.008;2023-02-11T10:03:20;78029.97;;;-142.53;100.00
4133;BME280;2080;51.038;7.008;2023-02-11T10:08:32;78010.56;;;-142.53;100.00
4133;BME280;2080;51.038;7.008;2023-02-11T10:11:07;78014.44;;;-142.53;100.00
4133;BME280;2080;51.038;7.008;2023-02-11T10:18:55;78024.16;;;-142.53;100.00
4133;BME280;2080;51.038;7.008;2023-02-11T10:21:36;78057.19;;;-142.53;100.00
4133;BME280;2080;51.038;7.008;2023-02-11T10:24:10;78061.06;;;-142.53;100.00
4133;BME280;2080;51.038;7.008;2023-02-11T10:26:41;78061.06;;;-142.53;100.00
4133;BME280;2080;51.038;7.008;2023-02-11T10:31:45;78043.59;;;-142.53;100.00
4133;BME280;2080;51.038;7.008;2023-02-11T10:34:13;78041.66;;;-142.53;100.00
4133;BME280;2080;51.038;7.008;2023-02-11T10:36:43;78031.94;;;-142.53;100.00
4133;BME280;2080;51.038;7.008;2023-02-11T10:39:15;78024.16;;;-142.53;100.00
4133;BME280;2080;51.038;7.008;2023-02-11T10:41:48;78026.09;;;-142.53;100.00
4133;BME280;2080;51.038;7.008;2023-02-11T10:44:36;78022.22;;;-142.53;100.00
4133;BME280;2080;51.038;7.008;2023-02-11T10:47:30;78024.16;;;-142.53;100.00
4133;BME280;2080;51.038;7.008;2023-02-11T10:49:57;78018.31;;;-142.53;100.00
4133;BME280;2080;51.038;7.008;2023-02-11T10:52:29;78014.44;;;-142.53;100.00
4133;BME280;2080;51.038;7.008;2023-02-11T11:00:05;78002.78;;;-142.53;100.00
4133;BME280;2080;51.038;7.008;2023-02-11T11:02:37;77993.06;;;-142.53;100.00
4133;BME280;2080;51.038;7.008;2023-02-11T11:05:19;77979.47;;;-142.53;100.00
4133;BME280;2080;51.038;7.008;2023-02-11T11:07:59;78002.78;;;-142.53;100.00
4133;BME280;2080;51.038;7.008;2023-02-11T11:10:37;77998.91;;;-142.53;100.00
4133;BME280;2080;51.038;7.008;2023-02-11T11:18:43;77995.00;;;-142.53;100.00
4133;BME280;2080;51.038;7.008;2023-02-11T11:21:18;77996.94;;;-142.53;100.00
4133;BME280;2080;51.038;7.008;2023-02-11T11:27:01;77975.56;;;-142.53;100.00
4133;BME280;2080;51.038;7.008;2023-02-11T11:32:03;77967.81;;;-142.53;100.00
4133;BME280;2080;51.038;7.008;2023-02-11T11:34:36;77987.22;;;-142.53;100.00
4133;BME280;2080;51.038;7.008;2023-02-11T11:37:18;77940.59;;;-142.53;100.00
4133;BME280;2080;51.038;7.008;2023-02-11T11:39:53;77960.03;;;-142.53;100.00
4133;BME280;2080;51.038;7.008;2023-02-11T11:42:29;77952.25;;;-142.53;100.00
4133;BME280;2080;51.038;7.008;2023-02-11T11:55:27;77971.69;;;-142.53;100.00
4133;BME280;2080;51.038;7.008;2023-02-11T11:57:55;77979.47;;;-142.53;100.00
4133;BME280;2080;51.038;7.008;2023-02-11T12:03:17;77950.31;;;-142.53;100.00
4133;BME280;2080;51.038;7.008;2023-02-11T12:06:07;77963.91;;;-142.53;100.00
4133;BME280;2080;51.038;7.008;2023-02-11T12:08:48;77979.47;;;-142.53;100.00
4133;BME280;2080;51.038;7.008;2023-02-11T12:11:34;77975.56;;;-142.53;100.00
4133;BME280;2080;51.038;7.008;2023-02-11T12:14:20;77952.25;;;-142.53;100.00
4133;BME280;2080;51.038;7.008;2023-02-11T12:17:23;77963.91;;;-142.53;100.00
4133;BME280;2080;51.038;7.008;2023-02-11T12:20:11;77963.91;;;-142.53;100.00
4133;BME280;2080;51.038;7.008;2023-02-11T12:34:16;77971.69;;;-142.53;100.00
4133;BME280;2080;51.038;7.008;2023-02-11T12:39:33;77952.25;;;-142.53;100.00
4133;BME280;2080;51.038;7.008;2023-02-11T12:42:30;77950.31;;;-142.53;100.00
4133;BME280;2080;51.038;7.008;2023-02-11T12:45:57;77940.59;;;-142.53;100.00
4133;BME280;2080;51.038;7.008;2023-02-11T12:51:00;77940.59;;;-142.53;100.00
4133;BME280;2080;51.038;7.008;2023-02-11T12:56:38;77928.94;;;-142.53;100.00
4133;BME280;2080;51.038;7.008;2023-02-11T12:59:13;77921.16;;;-142.53;100.00
4133;BME280;2080;51.038;7.008;2023-02-11T13:01:45;77921.16;;;-142.53;100.00
4133;BME280;2080;51.038;7.008;2023-02-11T13:06:58;77944.47;;;-142.53;100.00
4133;BME280;2080;51.038;7.008;2023-02-11T13:09:38;77917.28;;;-142.53;100.00
4133;BME280;2080;51.038;7.008;2023-02-11T13:12:06;77940.59;;;-142.53;100.00
4133;BME280;2080;51.038;7.008;2023-02-11T13:15:01;77952.25;;;-142.53;100.00
4133;BME280;2080;51.038;7.008;2023-02-11T13:17:40;77960.03;;;-142.53;100.00
4133;BME280;2080;51.038;7.008;2023-02-11T13:23:06;77932.81;;;-142.53;100.00
4133;BME280;2080;51.038;7.008;2023-02-11T13:25:42;77946.44;;;-142.53;100.00
4133;BME280;2080;51.038;7.008;2023-02-11T13:28:24;77940.59;;;-142.53;100.00
4133;BME280;2080;51.038;7.008;2023-02-11T13:30:52;77940.59;;;-142.53;100.00
4133;BME280;2080;51.038;7.008;2023-02-11T13:38:28;77923.09;;;-142.53;100.00
4133;BME280;2080;51.038;7.008;2023-02-11T13:41:17;77899.78;;;-142.53;100.00
4133;BME280;2080;51.038;7.008;2023-02-11T13:43:59;77905.63;;;-142.53;100.00
4133;BME280;2080;51.038;7.008;2023-02-11T13:46:46;77893.97;;;-142.53;100.00
4133;BME280;2080;51.038;7.008;2023-02-11T13:49:21;77886.19;;;-142.53;100.00
4133;BME280;2080;51.038;7.008;2023-02-11T13:51:47;77886.19;;;-142.53;100.00
4133;BME280;2080;51.038;7.008;2023-02-11T13:54:24;77874.53;;;-142.53;100.00
4133;BME280;2080;51.038;7.008;2023-02-11T13:57:32;77851.22;;;-142.53;100.00
4133;BME280;2080;51.038;7.008;2023-02-11T14:00:06;77847.31;;;-142.53;100.00
4133;BME280;2080;51.038;7.008;2023-02-11T14:16:26;77847.31;;;-142.53;100.00
4133;BME280;2080;51.038;7.008;2023-02-11T14:26:45;77800.69;;;-142.53;100.00
4133;BME280;2080;51.038;7.008;2023-02-11T14:32:02;77824.00;;;-142.53;100.00
4133;BME280;2080;51.038;7.008;2023-02-11T14:40:08;77824.00;;;-142.53;100.00
4133;BME280;2080;51.038;7.008;2023-02-11T14:42:40;77835.66;;;-142.53;100.00
4133;BME280;2080;51.038;7.008;2023-02-11T14:45:10;77827.88;;;-142.53;100.00
4133;BME280;2080;51.038;7.008;2023-02-11T14:47:44;77827.88;;;-142.53;100.00
4133;BME280;2080;51.038;7.008;2023-02-11T14:50:27;77820.13;;;-142.53;100.00
4133;BME280;2080;51.038;7.008;2023-02-11T14:52:57;77843.44;;;-142.53;100.00
4133;BME280;2080;51.038;7.008;2023-02-11T14:55:31;77824.00;;;-142.53;100.00
4133;BME280;2080;51.038;7.008;2023-02-11T14:58:12;77818.19;;;-142.53;100.00
4133;BME280;2080;51.038;7.008;2023-02-11T15:00:53;77814.28;;;-142.53;100.00
4133;BME280;2080;51.038;7.008;2023-02-11T15:03:39;77796.81;;;-142.53;100.00
4133;BME280;2080;51.038;7.008;2023-02-11T15:06:18;77800.69;;;-142.53;100.00
4133;BME280;2080;51.038;7.008;2023-02-11T15:09:36;77808.47;;;-142.53;100.00
4133;BME280;2080;51.038;7.008;2023-02-11T15:11:39;77790.97;;;-142.53;100.00
4133;BME280;2080;51.038;7.008;2023-02-11T15:14:08;77812.34;;;-142.53;100.00
4133;BME280;2080;51.038;7.008;2023-02-11T15:16:39;77794.84;;;-142.53;100.00
4133;BME280;2080;51.038;7.008;2023-02-11T15:19:18;77822.06;;;-142.53;100.00
4133;BME280;2080;51.038;7.008;2023-02-11T15:21:45;77824.00;;;-142.53;100.00
4133;BME280;2080;51.038;7.008;2023-02-11T15:29:44;77816.22;;;-142.53;100.00
4133;BME280;2080;51.038;7.008;2023-02-11T15:34:42;77843.44;;;-142.53;100.00